Time;durP1;ratioP1;P1;durP2;ratioP2;P2;SDS_P1;SDS_P2;PMS_P1;PMS_P2;Temp;Humidity;BMP_temperature;BMP_pressure;BME280_temperature;BME280_humidity;BME280_pressure;Samples;Min_cycle;Max_cycle;Signal;HPM_P1;HPM_P2
2022/03/03 00:02:09;;;;;;;320.95;128.90;;;;;;;-4.40;63.18;100866.58;2061999;86;27618;-66
2022/03/03 00:05:11;;;;;;;323.10;133.72;;;;;;;-4.43;63.30;100869.58;2061124;86;29837;-66
2022/03/03 00:08:13;;;;;;;338.48;137.52;;;;;;;-4.44;63.25;100871.73;2061841;86;31450;-66
2022/03/03 00:11:15;;;;;;;335.88;134.67;;;;;;;-4.45;63.23;100877.81;2061088;86;33791;-66
2022/03/03 00:14:17;;;;;;;327.50;129.18;;;;;;;-4.46;63.38;100869.95;2061386;86;30830;-66
2022/03/03 00:17:19;;;;;;;323.05;129.90;;;;;;;-4.47;63.32;100868.19;2061803;86;27718;-66
2022/03/03 00:20:21;;;;;;;315.57;128.38;;;;;;;-4.48;63.26;100863.80;2061859;86;29455;-67
2022/03/03 00:23:23;;;;;;;316.33;127.97;;;;;;;-4.51;63.31;100862.42;2060835;86;32180;-66
2022/03/03 00:26:25;;;;;;;308.60;124.02;;;;;;;-4.52;63.33;100861.97;2046049;86;34064;-67
2022/03/03 00:29:26;;;;;;;273.30;110.40;;;;;;;-4.55;63.42;100852.34;2029276;87;29615;-66
2022/03/03 00:32:28;;;;;;;273.85;111.95;;;;;;;-4.58;63.51;100855.78;2029792;87;27596;-65
2022/03/03 00:35:30;;;;;;;286.65;117.55;;;;;;;-4.59;63.56;100851.40;2031717;86;29885;-66
2022/03/03 00:38:32;;;;;;;265.37;109.50;;;;;;;-4.60;63.59;100850.94;2044755;86;32241;-66
2022/03/03 00:41:34;;;;;;;280.30;112.85;;;;;;;-4.61;63.64;100850.89;2026413;87;33503;-65
2022/03/03 00:44:36;;;;;;;259.43;108.37;;;;;;;-4.64;63.63;100850.85;2025043;87;30610;-65
2022/03/03 00:47:38;;;;;;;271.13;112.37;;;;;;;-4.65;63.86;100848.64;2024046;87;27633;-66
2022/03/03 00:50:40;;;;;;;262.98;108.05;;;;;;;-4.67;63.89;100849.03;2025133;87;28771;-66
2022/03/03 00:53:42;;;;;;;262.27;104.23;;;;;;;-4.69;63.80;100851.16;2025085;87;32168;-66
2022/03/03 00:56:44;;;;;;;263.57;108.20;;;;;;;-4.71;63.84;100849.80;2025306;87;32924;-65
2022/03/03 00:59:46;;;;;;;278.27;114.90;;;;;;;-4.74;63.84;100849.33;2025127;87;30216;-65
2022/03/03 01:02:50;;;;;;;268.15;109.52;;;;;;;-4.75;64.21;100855.40;2025192;86;27811;-66
2022/03/03 01:05:52;;;;;;;265.60;108.05;;;;;;;-4.77;64.39;100847.95;2025877;86;28638;-66
2022/03/03 01:08:54;;;;;;;267.75;107.43;;;;;;;-4.80;64.29;100844.39;2031221;86;31573;-66
2022/03/03 01:11:56;;;;;;;255.43;106.43;;;;;;;-4.83;64.21;100847.83;2033403;87;33035;-66
2022/03/03 01:14:57;;;;;;;266.77;107.43;;;;;;;-4.85;64.18;100847.31;2034224;87;29705;-66
2022/03/03 01:17:59;;;;;;;256.95;107.78;;;;;;;-4.88;64.13;100842.48;2034444;87;27720;-66
2022/03/03 01:21:01;;;;;;;261.60;106.32;;;;;;;-4.91;64.29;100846.36;2034359;87;29862;-65
2022/03/03 01:24:04;;;;;;;253.50;106.22;;;;;;;-4.94;64.48;100837.54;2034327;87;30790;-66
2022/03/03 01:27:05;;;;;;;256.52;104.00;;;;;;;-4.96;64.32;100845.80;2038990;86;33778;-66
2022/03/03 01:30:09;;;;;;;264.15;109.37;;;;;;;-4.96;64.40;100844.49;2048039;86;29625;-65
2022/03/03 01:33:12;;;;;;;267.45;108.03;;;;;;;-4.95;64.39;100843.20;2024871;87;27529;-65
2022/03/03 01:36:14;;;;;;;279.98;116.75;;;;;;;-4.96;64.41;100844.05;2029181;86;28601;-69
2022/03/03 01:39:15;;;;;;;267.95;111.45;;;;;;;-4.98;64.67;100835.73;2026548;87;31262;-70
2022/03/03 01:42:18;;;;;;;279.48;112.17;;;;;;;-5.02;64.61;100837.37;2024561;87;32941;-65
2022/03/03 01:45:20;;;;;;;270.45;111.42;;;;;;;-5.07;64.62;100827.27;2029204;86;29674;-66
2022/03/03 01:48:22;;;;;;;292.48;119.22;;;;;;;-5.12;64.65;100820.59;2035381;86;27702;-67
2022/03/03 01:51:23;;;;;;;299.00;123.00;;;;;;;-5.17;64.74;100813.52;2032782;86;29460;-67
2022/03/03 01:54:25;;;;;;;304.25;126.53;;;;;;;-5.22;64.85;100816.02;2024772;87;31824;-65
2022/03/03 01:57:27;;;;;;;278.60;118.53;;;;;;;-5.25;65.19;100819.45;2026288;86;32924;-65
2022/03/03 02:00:29;;;;;;;299.75;122.72;;;;;;;-5.28;65.08;100812.85;2040876;86;29617;-67
2022/03/03 02:03:31;;;;;;;297.40;121.02;;;;;;;-5.32;65.26;100813.62;2050620;86;27639;-68
2022/03/03 02:06:33;;;;;;;287.05;120.00;;;;;;;-5.36;65.28;100799.62;2050597;86;29468;-67
2022/03/03 02:09:35;;;;;;;284.35;119.05;;;;;;;-5.39;65.33;100795.63;2049977;86;32033;-65
2022/03/03 02:12:37;;;;;;;291.32;120.30;;;;;;;-5.41;65.39;100786.87;2039617;86;33019;-63
2022/03/03 02:15:38;;;;;;;293.35;122.75;;;;;;;-5.43;65.45;100775.50;2040985;86;29675;-67
2022/03/03 02:18:42;;;;;;;286.12;119.25;;;;;;;-5.45;65.47;100782.41;2062503;86;27721;-70
2022/03/03 02:21:48;;;;;;;270.77;119.65;;;;;;;-5.46;65.49;100784.59;2062138;86;28865;-65
2022/03/03 02:24:50;;;;;;;275.25;115.62;;;;;;;-5.48;65.54;100787.59;2062002;86;32054;-67
2022/03/03 02:27:52;;;;;;;274.98;114.25;;;;;;;-5.50;65.60;100778.39;2062420;86;32952;-66
2022/03/03 02:30:53;;;;;;;277.35;118.53;;;;;;;-5.50;65.66;100773.61;2038197;86;29630;-65
2022/03/03 02:33:57;;;;;;;257.52;112.92;;;;;;;-5.51;65.65;100781.84;2024458;87;27649;-65
2022/03/03 02:36:59;;;;;;;256.90;111.83;;;;;;;-5.54;65.67;100776.55;2045132;86;29275;-66
2022/03/03 02:40:03;;;;;;;266.52;109.22;;;;;;;-5.54;65.77;100772.63;2049346;86;31058;-66
2022/03/03 02:43:04;;;;;;;272.48;110.72;;;;;;;-5.55;65.79;100769.59;2060613;86;34074;-66
2022/03/03 02:46:07;;;;;;;260.93;111.45;;;;;;;-5.56;65.84;100770.84;2050952;86;29678;-66
2022/03/03 02:49:12;;;;;;;263.05;108.30;;;;;;;-5.57;65.93;100759.54;2032543;87;27753;-66
2022/03/03 02:52:13;;;;;;;244.22;108.95;;;;;;;-5.58;65.95;100759.08;2032029;87;28684;-66
2022/03/03 02:55:15;;;;;;;258.55;108.90;;;;;;;-5.59;65.90;100757.72;2032596;87;31812;-66
2022/03/03 02:58:17;;;;;;;259.55;108.07;;;;;;;-5.61;66.01;100759.00;2031407;87;33005;-67
2022/03/03 03:01:19;;;;;;;248.20;106.17;;;;;;;-5.61;65.98;100748.55;2032448;87;29618;-67
2022/03/03 03:04:21;;;;;;;242.00;103.32;;;;;;;-5.62;66.00;100744.62;2032755;87;27732;-67
2022/03/03 03:07:22;;;;;;;257.95;103.92;;;;;;;-5.62;66.01;100757.23;2037924;86;28620;-67
2022/03/03 03:10:24;;;;;;;234.37;100.02;;;;;;;-5.63;66.10;100752.85;2031852;87;31134;-66
2022/03/03 03:13:26;;;;;;;242.15;98.80;;;;;;;-5.63;66.17;100752.85;2032715;87;32931;-67
2022/03/03 03:16:28;;;;;;;245.63;101.35;;;;;;;-5.63;66.28;100744.16;2032641;87;29680;-67
2022/03/03 03:19:30;;;;;;;233.70;98.67;;;;;;;-5.63;66.29;100741.11;2032069;87;27775;-66
2022/03/03 03:22:31;;;;;;;238.50;100.75;;;;;;;-5.61;66.36;100737.22;2032604;87;29608;-66
2022/03/03 03:25:33;;;;;;;238.25;99.15;;;;;;;-5.59;66.39;100736.43;2032433;87;31080;-66
2022/03/03 03:28:35;;;;;;;222.95;95.25;;;;;;;-5.57;66.43;100736.05;2032337;87;33311;-65
2022/03/03 03:31:36;;;;;;;241.93;101.47;;;;;;;-5.50;66.70;100732.71;2032537;87;29630;-67
2022/03/03 03:34:38;;;;;;;216.35;97.02;;;;;;;-5.43;66.80;100734.17;2035000;86;27637;-66
2022/03/03 03:37:40;;;;;;;216.25;96.10;;;;;;;-5.37;66.96;100727.36;2062032;86;29425;-67
2022/03/03 03:40:42;;;;;;;220.80;96.50;;;;;;;-5.28;67.02;100724.06;2061979;86;31853;-66
2022/03/03 03:43:43;;;;;;;215.60;91.90;;;;;;;-5.19;67.12;100725.55;2059383;86;32971;-67
2022/03/03 03:46:45;;;;;;;205.15;90.83;;;;;;;-5.10;67.18;100719.64;2059710;86;30491;-67
2022/03/03 03:49:47;;;;;;;217.20;92.47;;;;;;;-5.01;67.34;100716.34;2059810;86;27738;-67
2022/03/03 03:52:49;;;;;;;207.47;89.97;;;;;;;-4.89;67.45;100721.84;2059683;86;28643;-67
2022/03/03 03:55:51;;;;;;;198.15;88.58;;;;;;;-4.78;67.52;100716.81;2034612;86;31023;-67
2022/03/03 03:58:53;;;;;;;202.13;89.17;;;;;;;-4.66;67.60;100706.16;2032732;87;32824;-66
2022/03/03 04:01:55;;;;;;;201.60;90.25;;;;;;;-4.55;67.65;100703.75;2033815;87;29646;-67
2022/03/03 04:04:57;;;;;;;187.88;84.45;;;;;;;-4.43;67.72;100713.12;2040911;86;27670;-65
2022/03/03 04:07:59;;;;;;;186.30;82.30;;;;;;;-4.31;67.84;100702.01;2059996;86;29771;-67
2022/03/03 04:11:02;;;;;;;196.25;87.30;;;;;;;-4.18;67.95;100699.16;2059837;86;30641;-67
2022/03/03 04:14:03;;;;;;;181.80;81.90;;;;;;;-4.08;68.00;100691.94;2059618;86;34007;-67
2022/03/03 04:17:06;;;;;;;189.77;82.92;;;;;;;-3.97;67.98;100694.29;2060013;86;29691;-66
2022/03/03 04:20:09;;;;;;;197.62;85.87;;;;;;;-3.85;68.00;100700.16;2059890;86;27786;-65
2022/03/03 04:23:11;;;;;;;187.92;83.07;;;;;;;-3.76;68.03;100695.91;2059105;86;29520;-68
2022/03/03 04:26:13;;;;;;;189.30;82.90;;;;;;;-3.67;67.96;100685.14;2059686;86;31142;-68
2022/03/03 04:29:15;;;;;;;194.05;83.42;;;;;;;-3.57;67.92;100682.23;2060060;86;33691;-67
2022/03/03 04:32:17;;;;;;;203.25;87.30;;;;;;;-3.46;67.90;100678.88;2059430;86;29802;-66
2022/03/03 04:35:18;;;;;;;183.05;83.65;;;;;;;-3.40;67.75;100673.73;2060074;86;27699;-66
2022/03/03 04:38:20;;;;;;;185.90;86.20;;;;;;;-3.31;67.84;100675.19;2060073;86;29459;-66
2022/03/03 04:41:22;;;;;;;193.62;85.28;;;;;;;-3.24;67.74;100660.42;2055305;86;30974;-67
2022/03/03 04:44:23;;;;;;;194.77;86.50;;;;;;;-3.15;67.73;100665.77;2024736;87;33710;-66
2022/03/03 04:47:25;;;;;;;192.92;86.80;;;;;;;-3.08;67.58;100664.09;2025116;87;29622;-68
2022/03/03 04:50:27;;;;;;;188.03;87.40;;;;;;;-3.03;67.58;100657.17;2024454;87;27965;-68
2022/03/03 04:53:29;;;;;;;186.70;85.75;;;;;;;-2.97;67.52;100661.61;2025126;87;28635;-68
2022/03/03 04:56:31;;;;;;;188.18;85.35;;;;;;;-2.92;67.46;100663.41;2025012;87;31041;-67
2022/03/03 04:59:33;;;;;;;184.70;84.80;;;;;;;-2.86;67.42;100661.28;2024902;87;33749;-67
2022/03/03 05:02:34;;;;;;;218.50;98.00;;;;;;;-2.81;67.38;100654.81;2029762;86;29621;-67
2022/03/03 05:05:36;;;;;;;235.32;108.63;;;;;;;-2.78;67.37;100663.58;2034187;87;27863;-68
2022/03/03 05:08:38;;;;;;;210.85;97.22;;;;;;;-2.75;67.26;100670.59;2033911;87;28612;-68
2022/03/03 05:11:41;;;;;;;197.53;90.10;;;;;;;-2.71;67.16;100668.45;2034352;87;31335;-68
2022/03/03 05:14:42;;;;;;;201.73;88.67;;;;;;;-2.68;67.11;100663.66;2034482;87;32979;-67
2022/03/03 05:17:44;;;;;;;188.32;84.25;;;;;;;-2.66;67.08;100665.45;2034385;87;30436;-67
2022/03/03 05:20:46;;;;;;;191.25;82.97;;;;;;;-2.62;67.11;100667.22;2034376;87;27772;-68
2022/03/03 05:23:48;;;;;;;180.80;83.85;;;;;;;-2.57;67.03;100668.61;2034424;87;28625;-67
2022/03/03 05:26:50;;;;;;;180.27;83.22;;;;;;;-2.54;66.98;100667.30;2028463;87;31072;-68
2022/03/03 05:29:52;;;;;;;189.13;86.75;;;;;;;-2.50;66.94;100670.86;2024297;87;33679;-68
2022/03/03 05:32:54;;;;;;;187.03;86.90;;;;;;;-2.48;66.92;100669.13;2031605;86;29643;-68
2022/03/03 05:36:03;;;;;;;181.47;82.95;;;;;;;-2.43;66.96;100669.17;2034497;87;27603;-67
2022/03/03 05:39:05;;;;;;;185.67;85.22;;;;;;;-2.41;66.91;100663.06;2034330;87;29469;-67
2022/03/03 05:42:07;;;;;;;180.78;83.37;;;;;;;-2.36;66.92;100667.03;2033872;87;32076;-68
2022/03/03 05:45:10;;;;;;;185.28;84.25;;;;;;;-2.33;66.82;100660.09;2033621;87;33015;-68
2022/03/03 05:48:12;;;;;;;176.50;82.15;;;;;;;-2.29;66.78;100654.43;2033463;87;29657;-68
2022/03/03 05:51:13;;;;;;;182.22;83.72;;;;;;;-2.25;66.79;100649.66;2033477;87;27698;-67
2022/03/03 05:54:15;;;;;;;176.32;80.90;;;;;;;-2.19;66.88;100645.76;2032650;87;29624;-68
2022/03/03 05:57:24;;;;;;;180.12;82.42;;;;;;;-2.14;66.83;100641.84;2033333;87;32046;-68
2022/03/03 06:00:29;;;;;;;177.72;81.70;;;;;;;-2.07;66.81;100648.92;2033032;87;32973;-67
2022/03/03 06:03:31;;;;;;;177.12;82.88;;;;;;;-2.00;66.79;100644.59;2055233;86;29633;-68
2022/03/03 06:06:37;;;;;;;176.07;80.87;;;;;;;-1.94;66.76;100631.52;2060049;86;27728;-67
2022/03/03 06:09:39;;;;;;;199.30;91.17;;;;;;;-1.88;66.79;100628.92;2054202;86;28621;-68
2022/03/03 06:12:50;;;;;;;207.67;92.47;;;;;;;-1.81;66.75;100631.15;2012612;87;31119;-68
2022/03/03 06:15:53;;;;;;;203.07;92.02;;;;;;;-1.75;66.62;100627.71;2033243;87;32987;-68
2022/03/03 06:18:54;;;;;;;205.03;93.75;;;;;;;-1.68;66.57;100626.86;2033471;87;29901;-67
2022/03/03 06:21:57;;;;;;;196.68;89.92;;;;;;;-1.59;66.56;100631.28;2033431;87;28166;-68
2022/03/03 06:24:59;;;;;;;204.50;90.75;;;;;;;-1.53;66.51;100632.20;2033377;87;29109;-67
2022/03/03 06:28:01;;;;;;;205.20;94.47;;;;;;;-1.44;66.36;100630.05;2033434;87;31050;-67
2022/03/03 06:31:05;;;;;;;208.78;92.02;;;;;;;-1.36;66.37;100617.40;2037424;86;33807;-66
2022/03/03 06:34:07;;;;;;;193.15;91.53;;;;;;;-1.27;66.37;100617.42;2038486;86;29655;-68
2022/03/03 06:37:10;;;;;;;209.27;92.55;;;;;;;-1.16;66.45;100620.09;2033650;87;27595;-68
2022/03/03 06:40:13;;;;;;;206.72;92.97;;;;;;;-1.05;66.40;100619.69;2033757;87;29511;-69
2022/03/03 06:43:14;;;;;;;208.02;92.02;;;;;;;-0.94;66.42;100616.68;2031133;87;31858;-68
2022/03/03 06:46:18;;;;;;;205.92;95.85;;;;;;;-0.80;66.40;100614.06;2029470;87;33970;-69
2022/03/03 06:49:21;;;;;;;189.13;89.00;;;;;;;-0.65;66.25;100621.54;2029688;87;29750;-68
2022/03/03 06:52:30;;;;;;;192.80;90.80;;;;;;;-0.52;66.10;100616.76;2029654;87;27727;-69
2022/03/03 06:55:34;;;;;;;194.22;92.02;;;;;;;-0.35;66.18;100610.63;2029551;87;29323;-69
2022/03/03 06:58:37;;;;;;;183.78;89.15;;;;;;;-0.19;66.07;100622.02;2029724;87;31190;-69
2022/03/03 07:01:41;;;;;;;185.55;89.22;;;;;;;-0.01;65.98;100614.56;2040819;86;33841;-69
2022/03/03 07:04:51;;;;;;;186.95;91.00;;;;;;;0.17;65.83;100615.42;2061899;86;29639;-68
2022/03/03 07:07:54;;;;;;;194.85;91.75;;;;;;;0.32;65.52;100621.08;2031952;86;27670;-67
2022/03/03 07:10:56;;;;;;;181.65;89.60;;;;;;;0.48;65.40;100623.25;2029903;87;28668;-68
2022/03/03 07:13:59;;;;;;;196.02;92.85;;;;;;;0.59;65.04;100621.45;2029838;87;31092;-68
2022/03/03 07:17:04;;;;;;;198.75;95.90;;;;;;;0.72;64.95;100624.92;2029343;87;33599;-68
2022/03/03 07:20:08;;;;;;;195.77;96.82;;;;;;;0.84;64.79;100622.66;2005866;87;29683;-68
2022/03/03 07:23:36;;;;;;;139.18;68.67;;;;;;;0.97;64.71;100619.10;2005732;87;28225;-67
2022/03/03 07:26:39;;;;;;;170.02;85.62;;;;;;;1.10;64.42;100624.30;2029077;87;29559;-67
2022/03/03 07:29:42;;;;;;;180.63;87.08;;;;;;;1.20;64.32;100628.21;2029328;87;31861;-71
2022/03/03 07:33:01;;;;;;;174.38;83.78;;;;;;;1.31;64.13;100627.25;2051906;86;32942;-70
2022/03/03 07:36:08;;;;;;;163.87;82.50;;;;;;;1.40;63.88;100636.88;2003167;88;30397;-69
2022/03/03 07:39:12;;;;;;;178.25;85.38;;;;;;;1.49;63.83;100631.56;2022680;87;27763;-69
2022/03/03 07:42:18;;;;;;;167.17;83.90;;;;;;;1.57;63.66;100624.44;2001008;88;28677;-70
2022/03/03 07:45:21;;;;;;;170.00;84.55;;;;;;;1.65;63.59;100627.92;2003058;88;31144;-72
2022/03/03 07:48:24;;;;;;;171.02;80.03;;;;;;;1.73;63.62;100623.00;2001907;88;33223;-73
2022/03/03 07:51:28;;;;;;;178.78;83.12;;;;;;;1.76;63.36;100626.48;2023278;87;29643;-71
2022/03/03 07:54:30;;;;;;;161.62;80.47;;;;;;;1.75;63.32;100633.98;2012540;87;27725;-70
2022/03/03 07:57:39;;;;;;;163.60;80.22;;;;;;;1.73;63.12;100623.00;2009643;88;28662;-72
2022/03/03 08:00:47;;;;;;;165.70;80.72;;;;;;;1.67;63.05;100627.89;2010134;87;31099;-70
2022/03/03 08:03:48;;;;;;;172.40;78.02;;;;;;;1.85;63.42;100637.88;2000713;89;33030;-67
2022/03/03 08:06:52;;;;;;;155.20;78.72;;;;;;;2.25;63.39;100633.11;2009590;88;29560;-71
2022/03/03 08:09:59;;;;;;;152.22;73.50;;;;;;;2.67;62.98;100623.41;2010264;88;27733;-69
2022/03/03 08:13:02;;;;;;;152.90;73.35;;;;;;;3.11;62.56;100617.55;2000880;89;29770;-69
2022/03/03 08:16:04;;;;;;;137.75;67.05;;;;;;;3.48;61.93;100612.59;2000893;89;32425;-71
2022/03/03 08:19:07;;;;;;;131.75;66.17;;;;;;;3.88;61.38;100612.86;2009852;88;33121;-70
2022/03/03 08:22:09;;;;;;;142.45;66.15;;;;;;;4.22;60.78;100616.25;1985663;87;30402;-69
2022/03/03 08:25:12;;;;;;;131.67;64.00;;;;;;;4.52;59.97;100614.80;2061971;86;27713;-70
2022/03/03 08:28:14;;;;;;;131.65;65.20;;;;;;;4.75;59.45;100611.27;2062021;86;28111;-69
2022/03/03 08:31:19;;;;;;;118.20;64.35;;;;;;;4.91;59.00;100607.38;2062080;86;31019;-70
2022/03/03 08:35:07;;;;;;;122.17;63.68;;;;;;;4.99;58.60;100605.42;2061795;86;32961;-69
2022/03/03 08:38:31;;;;;;;120.62;60.55;;;;;;;5.06;58.52;100614.13;2062097;86;29679;-70
2022/03/03 08:41:38;;;;;;;115.72;60.95;;;;;;;5.08;58.35;100612.31;2062130;86;27638;-70
2022/03/03 08:44:43;;;;;;;116.97;60.60;;;;;;;5.07;57.75;100603.06;2060311;86;28625;-69
2022/03/03 08:47:44;;;;;;;;;;;;;;;4.98;57.68;100604.14;2061951;86;31041;-71
2022/03/03 08:50:52;;;;;;;115.00;60.88;;;;;;;4.94;57.68;100603.34;2059795;86;33759;-70
2022/03/03 08:53:55;;;;;;;118.17;59.35;;;;;;;4.90;57.56;100605.63;2044066;86;29819;-71
2022/03/03 08:56:57;;;;;;;107.87;57.48;;;;;;;4.88;57.63;100603.45;2033509;86;27726;-72
2022/03/03 09:00:01;;;;;;;104.90;56.02;;;;;;;4.92;57.54;100597.19;2006273;88;27774;-70
2022/03/03 09:03:04;;;;;;;108.80;56.92;;;;;;;4.96;57.35;100600.64;2024873;87;31046;-71
2022/03/03 09:06:08;;;;;;;108.87;57.08;;;;;;;4.98;57.01;100598.36;2008761;88;33041;-71
2022/03/03 09:09:10;;;;;;;108.03;57.75;;;;;;;5.00;56.90;100592.56;2009316;88;29688;-72
2022/03/03 09:12:13;;;;;;;106.35;55.65;;;;;;;5.04;56.88;100590.74;2009948;88;27635;-69
2022/03/03 09:15:15;;;;;;;96.20;51.33;;;;;;;5.10;56.82;100588.40;2009651;88;29543;-69
2022/03/03 09:18:17;;;;;;;99.37;52.30;;;;;;;5.16;56.75;100580.27;2010417;88;31146;-70
2022/03/03 09:21:20;;;;;;;106.52;55.12;;;;;;;5.26;56.67;100582.27;2037715;87;32943;-70
2022/03/03 09:24:23;;;;;;;92.67;49.15;;;;;;;5.31;56.19;100570.62;2013535;88;29656;-70
2022/03/03 09:27:25;;;;;;;85.45;45.25;;;;;;;5.41;55.97;100569.09;2059692;86;27753;-68
2022/03/03 09:30:28;;;;;;;80.75;43.10;;;;;;;5.51;55.72;100571.08;2059472;86;29472;-70
2022/03/03 09:33:30;;;;;;;80.38;40.67;;;;;;;5.61;55.29;100561.95;2055095;86;31695;-71
2022/03/03 09:36:32;;;;;;;76.90;43.85;;;;;;;5.72;54.95;100560.36;2033012;87;33741;-71
2022/03/03 09:39:34;;;;;;;75.12;42.58;;;;;;;5.83;54.89;100558.76;2033027;87;29706;-67
2022/03/03 09:42:35;;;;;;;69.03;40.63;;;;;;;5.95;54.15;100556.24;2033192;87;27772;-69
2022/03/03 09:45:38;;;;;;;70.95;38.70;;;;;;;6.09;54.38;100552.79;2021740;86;28656;-66
2022/03/03 09:48:40;;;;;;;70.28;38.88;;;;;;;6.22;53.67;100554.63;2015714;88;31907;-68
2022/03/03 09:51:50;;;;;;;64.87;38.78;;;;;;;6.30;53.31;100553.09;2015297;88;32972;-67
2022/03/03 09:54:57;;;;;;;65.45;37.17;;;;;;;6.38;52.91;100552.44;2008260;87;29687;-67
2022/03/03 09:57:59;;;;;;;60.48;34.80;;;;;;;6.41;52.43;100555.45;2023909;87;27795;-69
2022/03/03 10:01:01;;;;;;;64.75;37.05;;;;;;;6.45;51.90;100552.69;2049923;86;28623;-66
2022/03/03 10:04:24;;;;;;;61.58;33.70;;;;;;;6.50;51.72;100548.56;2026077;86;31191;-66
2022/03/03 10:07:28;;;;;;;62.53;34.50;;;;;;;6.59;51.78;100549.61;2002802;88;34190;-66
2022/03/03 10:10:31;;;;;;;62.78;35.08;;;;;;;6.66;51.25;100553.84;2002923;87;29122;-66
2022/03/03 10:13:53;;;;;;;57.10;34.20;;;;;;;6.68;50.91;100553.35;2002812;87;27648;-65
2022/03/03 10:16:55;;;;;;;49.73;28.00;;;;;;;6.73;51.02;100555.87;1937731;91;28697;-64
2022/03/03 10:20:02;;;;;;;59.88;34.38;;;;;;;6.77;50.08;100550.88;1954230;90;32391;-64
2022/03/03 10:23:01;;;;;;;44.18;27.50;;;;;;;6.79;50.27;100555.67;1905162;91;33557;-64
2022/03/03 10:26:09;;;;;;;49.93;29.72;;;;;;;6.83;49.69;100557.80;1908523;93;30821;-65
2022/03/03 10:29:20;;;;;;;48.92;28.83;;;;;;;6.85;49.91;100549.31;1930968;92;27752;-66
2022/03/03 10:32:23;;;;;;;43.10;27.52;;;;;;;6.89;48.57;100554.08;1911923;93;30516;-67
2022/03/03 10:35:26;;;;;;;51.23;31.12;;;;;;;6.90;49.27;100543.84;1912035;93;31921;-66
2022/03/03 10:38:28;;;;;;;50.58;31.23;;;;;;;6.96;48.90;100539.64;1912182;93;34350;-67
2022/03/03 10:41:38;;;;;;;56.48;31.45;;;;;;;7.01;49.14;100537.71;1914134;92;30958;-66
2022/03/03 10:44:40;;;;;;;72.12;38.05;;;;;;;7.03;48.40;100544.34;1961224;89;27745;-64
2022/03/03 10:47:47;;;;;;;76.75;44.23;;;;;;;7.01;48.72;100535.05;1965170;90;29775;-65
2022/03/03 10:50:52;;;;;;;54.38;33.02;;;;;;;7.07;48.67;100534.87;1936003;90;31872;-65
2022/03/03 10:53:58;;;;;;;52.88;30.68;;;;;;;7.05;48.35;100536.70;2018946;87;33030;-65
2022/03/03 10:57:00;;;;;;;54.65;31.25;;;;;;;7.06;47.72;100528.23;1960818;88;30414;-65
2022/03/03 11:00:07;;;;;;;56.25;33.38;;;;;;;7.09;48.16;100534.36;2003528;88;27696;-64
2022/03/03 11:03:10;;;;;;;53.60;32.40;;;;;;;7.10;47.86;100527.23;2032836;87;29476;-65
2022/03/03 11:06:13;;;;;;;59.35;34.50;;;;;;;7.11;48.15;100524.53;2032384;87;32255;-65
2022/03/03 11:09:17;;;;;;;63.80;34.10;;;;;;;7.15;47.86;100518.64;2032386;87;33799;-65
2022/03/03 11:12:19;;;;;;;60.10;31.52;;;;;;;7.15;47.52;100516.83;2033157;86;30423;-64
2022/03/03 11:15:24;;;;;;;58.83;31.97;;;;;;;7.15;47.53;100515.98;2032514;87;27697;-65
2022/03/03 11:18:26;;;;;;;;;;;;;;;7.12;47.19;100514.27;2035007;87;29396;-65
2022/03/03 11:21:28;;;;;;;45.48;26.40;;;;;;;7.05;46.25;100513.17;2032468;87;32441;-65
2022/03/03 11:24:32;;;;;;;39.48;25.15;;;;;;;6.93;46.00;100507.80;2032419;87;34010;-65
2022/03/03 11:27:40;;;;;;;44.80;23.45;;;;;;;6.86;46.84;100508.45;2032978;87;29640;-64
2022/03/03 11:30:46;;;;;;;39.92;24.43;;;;;;;6.83;46.35;100501.41;2033660;85;28178;-65
2022/03/03 11:33:48;;;;;;;48.13;26.15;;;;;;;6.79;46.52;100502.41;2032746;87;29090;-64
2022/03/03 11:37:06;;;;;;;40.35;25.32;;;;;;;6.77;46.09;100507.38;2033233;87;31219;-63
2022/03/03 11:40:17;;;;;;;43.65;24.95;;;;;;;6.76;46.87;100497.65;2006226;88;32801;-66
2022/03/03 11:43:19;;;;;;;41.48;25.32;;;;;;;6.75;45.74;100502.12;2005435;88;31705;-66
2022/03/03 11:46:46;;;;;;;40.92;25.65;;;;;;;6.71;46.19;100502.23;1986049;88;27706;-67
2022/03/03 11:50:09;;;;;;;41.05;24.32;;;;;;;6.74;46.53;100504.81;2006708;87;29643;-65
2022/03/03 11:53:18;;;;;;;46.60;24.63;;;;;;;6.75;46.27;100494.13;2009328;88;31300;-65
2022/03/03 11:56:19;;;;;;;37.03;23.18;;;;;;;6.78;46.31;100495.38;2005259;88;33135;-65
2022/03/03 11:59:21;;;;;;;36.88;23.25;;;;;;;6.78;45.82;100494.48;1998397;89;29427;-65
2022/03/03 12:02:34;;;;;;;46.77;26.73;;;;;;;6.75;45.65;100493.24;1977528;89;27730;-65
2022/03/03 12:05:43;;;;;;;43.08;26.93;;;;;;;6.74;45.94;100488.39;1999092;89;29599;-65
2022/03/03 12:08:45;;;;;;;39.78;25.68;;;;;;;6.75;46.07;100483.48;1999637;88;31031;-64
2022/03/03 12:11:47;;;;;;;49.50;28.87;;;;;;;6.73;45.74;100481.77;1999328;89;32759;-64
2022/03/03 12:14:55;;;;;;;44.67;26.48;;;;;;;6.74;45.97;100475.52;1984142;88;30763;-66
2022/03/03 12:17:58;;;;;;;46.37;26.77;;;;;;;6.75;45.85;100479.93;2003870;88;27582;-66
2022/03/03 12:21:37;;;;;;;43.20;26.40;;;;;;;6.77;45.88;100474.10;2003862;88;28246;-63
2022/03/03 12:24:41;;;;;;;43.78;26.20;;;;;;;6.79;46.01;100471.79;2005240;88;31248;-66
2022/03/03 12:28:16;;;;;;;48.13;28.07;;;;;;;6.82;46.01;100464.19;2005569;88;33850;-63
2022/03/03 12:31:29;;;;;;;42.23;24.95;;;;;;;6.83;45.81;100468.13;2007388;87;29727;-67
2022/03/03 12:34:31;;;;;;;42.50;24.65;;;;;;;6.78;44.47;100470.52;2024960;87;27675;-68
2022/03/03 12:37:33;;;;;;;39.80;24.25;;;;;;;6.69;45.20;100471.23;2025042;87;28742;-64
2022/03/03 12:40:36;;;;;;;41.20;25.17;;;;;;;6.66;43.99;100474.42;2025160;87;31022;-64
2022/03/03 12:43:40;;;;;;;39.25;23.55;;;;;;;6.63;44.98;100463.86;1955559;90;33771;-64
2022/03/03 12:46:44;;;;;;;40.28;24.05;;;;;;;6.60;44.56;100460.84;1975217;88;29624;-68
2022/03/03 12:49:51;;;;;;;39.90;23.10;;;;;;;6.56;44.10;100459.67;1931109;92;27810;-67
2022/03/03 12:53:06;;;;;;;43.23;23.83;;;;;;;6.49;44.92;100460.31;1948044;90;28632;-68
2022/03/03 12:56:09;;;;;;;44.30;25.40;;;;;;;6.51;45.10;100455.82;1903346;93;31069;-64
2022/03/03 12:59:11;;;;;;;40.03;22.60;;;;;;;6.44;44.89;100449.81;1938034;91;33716;-64
2022/03/03 13:02:14;;;;;;;44.83;24.70;;;;;;;6.41;44.70;100457.89;1927190;91;30808;-68
2022/03/03 13:05:38;;;;;;;37.00;23.70;;;;;;;6.38;45.13;100444.19;1988037;89;27866;-68
2022/03/03 13:08:41;;;;;;;37.78;22.02;;;;;;;6.38;44.72;100449.52;1959880;90;28844;-65
2022/03/03 13:11:43;;;;;;;48.13;30.35;;;;;;;6.34;44.95;100445.67;1954065;90;31171;-65
2022/03/03 13:14:59;;;;;;;42.88;27.10;;;;;;;6.30;44.93;100444.89;1935629;91;33763;-68
2022/03/03 13:18:12;;;;;;;39.00;23.92;;;;;;;6.29;45.46;100439.16;1935756;91;30490;-68
2022/03/03 13:21:17;;;;;;;40.33;26.00;;;;;;;6.29;45.64;100438.30;1937133;90;28471;-66
2022/03/03 13:24:24;;;;;;;44.83;24.23;;;;;;;6.29;45.75;100437.83;1958844;90;28666;-68
2022/03/03 13:27:26;;;;;;;30.62;19.48;;;;;;;6.33;45.57;100434.17;1929151;92;32310;-64
2022/03/03 13:30:28;;;;;;;34.65;21.40;;;;;;;6.35;45.69;100442.09;1930595;92;34168;-67
2022/03/03 13:33:54;;;;;;;38.73;22.73;;;;;;;6.31;45.12;100427.13;1931367;92;30929;-68
2022/03/03 13:37:00;;;;;;;33.33;20.72;;;;;;;6.30;45.43;100437.35;1931647;92;27725;-69
2022/03/03 13:40:24;;;;;;;38.55;21.73;;;;;;;6.30;45.62;100434.69;1931879;92;28725;-65
2022/03/03 13:43:26;;;;;;;32.48;21.70;;;;;;;6.29;45.98;100430.32;1939513;88;31862;-64
2022/03/03 13:46:31;;;;;;;35.83;21.75;;;;;;;6.28;45.78;100428.10;2000924;87;33808;-64
2022/03/03 13:49:40;;;;;;;29.90;17.27;;;;;;;6.26;45.86;100425.09;1998554;89;34715;-65
2022/03/03 13:52:42;;;;;;;46.25;26.85;;;;;;;6.23;45.95;100429.58;2031922;87;28276;-64
2022/03/03 13:55:46;;;;;;;44.58;25.90;;;;;;;6.21;45.98;100432.73;2033060;87;29862;-64